Time;durP1;ratioP1;P1;durP2;ratioP2;P2;SDS_P1;SDS_P2;PMS_P1;PMS_P2;Temp;Humidity;BMP_temperature;BMP_pressure;BME280_temperature;BME280_humidity;BME280_pressure;Samples;Min_cycle;Max_cycle;Signal;HPM_P1;HPM_P2
2021/06/28 00:01:09;;;;;;;;;12.75;12.00;;;;;20.69;82.36;101085.84;4936507;28;45486;-79
2021/06/28 00:03:35;;;;;;;;;12.00;10.75;;;;;20.68;82.00;101096.66;4934410;28;45577;-79
2021/06/28 00:06:01;;;;;;;;;8.50;8.50;;;;;20.66;82.27;101088.75;4934371;28;45524;-80
2021/06/28 00:08:26;;;;;;;;;10.00;7.25;;;;;20.65;82.44;101091.53;4935147;28;45609;-80
2021/06/28 00:10:52;;;;;;;;;14.00;8.75;;;;;20.64;82.18;101088.03;4935037;28;45404;-79
2021/06/28 00:13:18;;;;;;;;;9.25;8.00;;;;;20.63;82.69;101089.00;4937352;28;45546;-80
2021/06/28 00:15:44;;;;;;;;;10.75;10.50;;;;;20.63;82.47;101085.50;4934069;28;46018;-77
2021/06/28 00:18:11;;;;;;;;;7.75;7.75;;;;;20.62;82.04;101091.78;4932838;28;45349;-77
2021/06/28 00:20:37;;;;;;;;;10.00;10.00;;;;;20.61;82.31;101093.59;4934921;28;45457;-78
2021/06/28 00:23:03;;;;;;;;;10.25;9.50;;;;;20.61;82.97;101090.06;4935444;28;45773;-78
2021/06/28 00:25:29;;;;;;;;;12.00;10.00;;;;;20.58;82.88;101081.34;4935901;28;45475;-78
2021/06/28 00:27:55;;;;;;;;;12.25;12.00;;;;;20.61;82.93;101074.06;4934687;28;45322;-77
2021/06/28 00:30:22;;;;;;;;;10.75;10.00;;;;;20.60;82.35;101073.22;4934486;28;45629;-77
2021/06/28 00:32:49;;;;;;;;;14.00;10.00;;;;;20.59;82.60;101060.84;4934647;28;45452;-78
2021/06/28 00:35:15;;;;;;;;;11.75;8.25;;;;;20.59;82.71;101060.84;4932821;28;45514;-77
2021/06/28 00:37:41;;;;;;;;;12.25;8.50;;;;;20.57;82.75;101052.97;4935141;28;45436;-78
2021/06/28 00:40:09;;;;;;;;;9.00;8.50;;;;;20.57;83.00;101058.28;4934833;28;45396;-77
2021/06/28 00:42:35;;;;;;;;;10.75;9.25;;;;;20.55;82.84;101044.19;4934601;28;45411;-77
2021/06/28 00:45:14;;;;;;;;;11.25;9.25;;;;;20.56;83.05;101045.03;4934582;28;45421;-77
2021/06/28 00:47:39;;;;;;;;;10.75;10.25;;;;;20.55;82.45;101041.53;4933835;28;45899;-77
2021/06/28 00:50:05;;;;;;;;;8.00;6.75;;;;;20.53;82.52;101029.28;4935072;28;45491;-77
2021/06/28 00:52:30;;;;;;;;;8.00;8.00;;;;;20.50;82.63;101022.34;4939056;28;45556;-77
2021/06/28 00:54:56;;;;;;;;;9.75;7.75;;;;;20.48;82.87;101026.97;4937987;28;45320;-78
2021/06/28 00:57:21;;;;;;;;;11.00;9.25;;;;;20.45;82.63;101021.84;4937826;28;45440;-77
2021/06/28 00:59:47;;;;;;;;;8.50;7.00;;;;;20.45;82.90;101029.00;4937794;28;45309;-77
2021/06/28 01:02:13;;;;;;;;;7.75;7.00;;;;;20.43;82.54;101022.94;4938001;28;45636;-77
2021/06/28 01:04:38;;;;;;;;;7.00;5.75;;;;;20.41;82.93;101020.41;4939046;28;45379;-76
2021/06/28 01:07:04;;;;;;;;;9.75;6.75;;;;;20.40;82.66;101020.50;4937844;28;45486;-77
2021/06/28 01:09:29;;;;;;;;;10.25;8.00;;;;;20.39;83.20;101010.81;4938325;28;49757;-78
2021/06/28 01:11:55;;;;;;;;;10.25;9.25;;;;;20.36;83.32;101003.91;4937270;28;45444;-77
2021/06/28 01:14:20;;;;;;;;;11.75;8.25;;;;;20.37;83.35;101004.75;4936750;28;46769;-76
2021/06/28 01:16:46;;;;;;;;;7.75;6.75;;;;;20.36;82.70;101000.38;4936284;28;45503;-78
2021/06/28 01:19:13;;;;;;;;;8.00;7.00;;;;;20.36;82.65;101001.25;4938275;28;45533;-78
2021/06/28 01:21:43;;;;;;;;;9.75;9.75;;;;;20.36;82.97;100992.38;4936714;28;45578;-77
2021/06/28 01:24:10;;;;;;;;;10.75;9.00;;;;;20.34;82.73;100987.16;4936557;28;46088;-78
2021/06/28 01:26:36;;;;;;;;;9.75;6.75;;;;;20.34;82.52;100979.16;4936386;28;45698;-78
2021/06/28 01:29:02;;;;;;;;;6.00;6.00;;;;;20.31;82.66;100971.41;4936203;28;45316;-78
2021/06/28 01:31:28;;;;;;;;;11.25;8.75;;;;;20.29;82.81;100970.66;4938251;28;45507;-78
2021/06/28 01:33:53;;;;;;;;;6.50;4.75;;;;;20.26;82.44;100973.59;4936243;28;45416;-77
2021/06/28 01:36:18;;;;;;;;;5.50;5.50;;;;;20.23;82.48;100984.50;4936626;28;45490;-78
2021/06/28 01:38:44;;;;;;;;;7.00;7.00;;;;;20.21;82.65;100983.78;4936216;28;45427;-77
2021/06/28 01:41:09;;;;;;;;;4.75;4.75;;;;;20.20;82.01;100998.06;4950720;28;45345;-77
2021/06/28 01:43:35;;;;;;;;;4.75;4.75;;;;;20.17;82.68;101023.19;4937410;28;45389;-78
2021/06/28 01:46:00;;;;;;;;;5.75;5.75;;;;;20.12;82.44;101043.22;4935146;28;45424;-75
2021/06/28 01:48:26;;;;;;;;;5.25;5.25;;;;;20.07;82.30;101047.06;4936744;28;45671;-75
2021/06/28 01:50:52;;;;;;;;;5.75;5.25;;;;;20.05;82.88;101041.03;4950925;28;45504;-77
2021/06/28 01:53:18;;;;;;;;;4.00;4.00;;;;;20.04;83.02;101036.63;4934117;28;46327;-77
2021/06/28 01:55:44;;;;;;;;;6.50;4.50;;;;;20.03;83.48;101042.09;4936876;28;45332;-78
2021/06/28 01:58:13;;;;;;;;;4.00;4.00;;;;;19.96;82.39;101041.72;4937036;28;45345;-76
2021/06/28 02:00:44;;;;;;;;;3.00;3.00;;;;;19.94;82.40;101027.66;4935491;28;45539;-77
2021/06/28 02:03:13;;;;;;;;;5.00;4.00;;;;;19.90;82.21;101018.19;4935404;28;46178;-78
2021/06/28 02:05:44;;;;;;;;;3.50;3.50;;;;;19.88;82.22;101014.78;4935857;28;45573;-78
2021/06/28 02:08:12;;;;;;;;;3.25;3.25;;;;;19.84;82.38;101032.00;4896982;28;1152405;-78
2021/06/28 02:10:40;;;;;;;;;3.25;3.25;;;;;19.81;82.39;101033.09;4937904;28;45472;-77
2021/06/28 02:13:06;;;;;;;;;2.50;2.50;;;;;19.76;82.18;101031.75;4937771;28;45381;-77
2021/06/28 02:15:32;;;;;;;;;5.25;3.00;;;;;19.75;82.38;101038.06;4935563;28;45382;-78
2021/06/28 02:17:59;;;;;;;;;3.25;2.50;;;;;19.76;82.93;101045.06;4936718;28;45482;-77
2021/06/28 02:20:26;;;;;;;;;1.75;1.75;;;;;19.76;82.10;101053.06;4937145;28;45488;-78
2021/06/28 02:22:53;;;;;;;;;3.75;3.25;;;;;19.76;82.43;101045.94;4936755;28;46240;-78
2021/06/28 02:25:20;;;;;;;;;3.00;3.00;;;;;19.76;82.37;101040.59;4938169;28;45766;-78
2021/06/28 02:27:46;;;;;;;;;3.50;3.50;;;;;19.76;82.64;101034.41;4936318;28;45574;-78
2021/06/28 02:30:15;;;;;;;;;2.50;2.50;;;;;19.75;82.10;101019.38;4936115;28;45498;-78
2021/06/28 02:32:42;;;;;;;;;3.75;3.00;;;;;19.71;82.03;101017.91;4937607;28;46640;-77
2021/06/28 02:35:09;;;;;;;;;3.00;3.00;;;;;19.69;82.36;101019.88;4944043;28;45478;-77
2021/06/28 02:37:36;;;;;;;;;5.75;4.00;;;;;19.68;82.88;101015.47;4945260;28;45858;-77
2021/06/28 02:40:05;;;;;;;;;5.00;3.75;;;;;19.67;82.68;101008.44;4942155;28;45643;-78
2021/06/28 02:42:30;;;;;;;;;5.50;4.00;;;;;19.65;82.24;101007.72;4942868;28;45400;-78
2021/06/28 02:44:55;;;;;;;;;2.75;2.50;;;;;19.62;82.49;101011.47;4943059;28;45514;-77
2021/06/28 02:47:21;;;;;;;;;2.00;2.00;;;;;19.58;82.12;101019.81;4943970;28;45448;-78
2021/06/28 02:49:46;;;;;;;;;2.00;2.00;;;;;19.54;82.66;101032.50;4943540;28;45439;-77
2021/06/28 02:52:11;;;;;;;;;3.50;1.75;;;;;19.50;82.96;101037.22;4944285;28;45518;-76
2021/06/28 02:54:37;;;;;;;;;3.00;3.00;;;;;19.48;82.68;101036.50;4944107;28;45428;-77
2021/06/28 02:57:03;;;;;;;;;1.50;1.50;;;;;19.48;83.03;101046.31;4943129;28;48548;-77
2021/06/28 02:59:28;;;;;;;;;2.00;2.00;;;;;19.47;82.68;101053.44;4943843;28;45301;-77
2021/06/28 03:01:53;;;;;;;;;2.00;2.00;;;;;19.46;82.85;101070.38;4942854;28;62123;-78
2021/06/28 03:04:18;;;;;;;;;4.00;3.00;;;;;19.45;82.54;101065.19;4944983;28;45321;-78
2021/06/28 03:06:44;;;;;;;;;2.50;2.50;;;;;19.42;82.42;101052.06;4943259;28;45519;-78
2021/06/28 03:09:09;;;;;;;;;2.50;2.00;;;;;19.39;82.38;101047.84;4941422;28;45511;-78
2021/06/28 03:11:34;;;;;;;;;2.00;2.00;;;;;19.36;82.87;101042.72;4938902;28;58995;-79
2021/06/28 03:14:00;;;;;;;;;1.00;1.00;;;;;19.36;82.14;101040.06;4937265;28;45359;-78
2021/06/28 03:16:25;;;;;;;;;2.00;2.00;;;;;19.34;82.56;101050.00;4951404;28;45507;-78
2021/06/28 03:18:51;;;;;;;;;2.75;2.25;;;;;19.33;81.87;101039.44;4936193;28;45575;-77
2021/06/28 03:21:16;;;;;;;;;3.00;1.75;;;;;19.28;82.01;101024.66;4934450;28;46255;-78
2021/06/28 03:23:44;;;;;;;;;2.00;2.00;;;;;19.27;81.98;101006.13;4935237;28;45511;-77
2021/06/28 03:26:10;;;;;;;;;3.00;2.00;;;;;19.25;82.22;101006.22;4935665;28;45431;-78
2021/06/28 03:28:35;;;;;;;;;2.75;2.25;;;;;19.24;82.12;100998.34;4937934;28;45372;-77
2021/06/28 03:31:02;;;;;;;;;6.25;2.25;;;;;19.24;82.82;100993.88;4935574;28;46210;-78
2021/06/28 03:33:28;;;;;;;;;4.75;2.25;;;;;19.26;82.45;100988.41;4935222;28;45590;-78
2021/06/28 03:35:54;;;;;;;;;2.00;2.00;;;;;19.27;82.12;100983.00;4935494;28;45549;-78
2021/06/28 03:38:19;;;;;;;;;2.00;2.00;;;;;19.26;82.54;100978.63;4934295;28;45572;-77
2021/06/28 03:40:44;;;;;;;;;4.25;2.00;;;;;19.27;82.83;100979.47;4934846;28;46014;-78
2021/06/28 03:43:10;;;;;;;;;4.00;2.75;;;;;19.29;82.27;100996.19;4936089;28;45325;-78
2021/06/28 03:45:38;;;;;;;;;2.00;2.00;;;;;19.25;81.82;101002.72;4936227;28;45323;-78
2021/06/28 03:48:05;;;;;;;;;1.25;1.25;;;;;19.22;82.38;101001.13;4935549;28;45416;-77
2021/06/28 03:50:31;;;;;;;;;3.50;2.25;;;;;19.20;82.19;101015.53;4935192;28;46512;-77
2021/06/28 03:52:57;;;;;;;;;2.25;2.25;;;;;19.18;82.47;101026.31;4935591;28;45646;-78
2021/06/28 03:55:22;;;;;;;;;3.00;3.00;;;;;19.17;82.38;101018.44;4936614;28;45667;-78
2021/06/28 03:57:48;;;;;;;;;2.00;2.00;;;;;19.14;82.26;101015.97;4935153;28;45454;-77
2021/06/28 04:00:19;;;;;;;;;3.00;2.50;;;;;19.14;82.31;101030.16;4935120;28;46073;-77
2021/06/28 04:02:45;;;;;;;;;2.00;2.00;;;;;19.16;82.31;101033.56;4934150;28;45425;-77
2021/06/28 04:05:15;;;;;;;;;3.75;2.50;;;;;19.20;82.35;101018.19;4935465;28;45584;-77
2021/06/28 04:07:41;;;;;;;;;2.00;2.00;;;;;19.21;82.94;101007.44;4936769;28;45371;-77
2021/06/28 04:10:07;;;;;;;;;3.25;2.50;;;;;19.23;82.21;101039.28;4935266;28;46259;-78
2021/06/28 04:12:33;;;;;;;;;2.25;2.25;;;;;19.21;82.19;101042.06;4935040;28;45596;-77
2021/06/28 04:14:58;;;;;;;;;2.50;2.50;;;;;19.21;82.57;101030.53;4935046;28;45449;-78
2021/06/28 04:17:25;;;;;;;;;3.00;1.50;;;;;19.20;82.62;101032.34;4935031;28;45446;-78
2021/06/28 04:19:50;;;;;;;;;3.25;3.25;;;;;19.19;82.70;101046.66;4935108;28;47116;-77
2021/06/28 04:22:16;;;;;;;;;3.50;2.00;;;;;19.17;82.15;101037.09;4936824;28;45348;-77
2021/06/28 04:24:41;;;;;;;;;1.50;1.50;;;;;19.16;82.31;101038.91;4934819;28;45381;-77
2021/06/28 04:27:07;;;;;;;;;3.25;3.25;;;;;19.16;82.43;101040.69;4934093;28;45511;-77
2021/06/28 04:29:32;;;;;;;;;3.50;1.25;;;;;19.14;82.43;101037.28;4933621;28;46959;-77
2021/06/28 04:31:57;;;;;;;;;3.00;3.00;;;;;19.13;82.61;101030.28;4934224;28;45392;-77
2021/06/28 04:34:23;;;;;;;;;5.25;3.00;;;;;19.12;82.41;101036.56;4936671;28;45807;-78
2021/06/28 04:36:48;;;;;;;;;3.50;1.50;;;;;19.12;82.88;101034.75;4935186;28;45401;-77
2021/06/28 04:39:13;;;;;;;;;1.25;1.25;;;;;19.13;82.46;101030.28;4934109;28;46247;-77
2021/06/28 04:41:39;;;;;;;;;2.75;2.50;;;;;19.13;82.53;101035.59;4934861;28;45456;-77
2021/06/28 04:44:04;;;;;;;;;2.75;1.25;;;;;19.13;82.55;101038.28;4934457;28;45560;-77
2021/06/28 04:46:30;;;;;;;;;2.50;2.50;;;;;19.11;82.66;101042.88;4936670;28;45314;-77
2021/06/28 04:48:55;;;;;;;;;3.75;2.25;;;;;19.10;82.77;101022.50;4934653;28;45558;-78
2021/06/28 04:51:21;;;;;;;;;2.75;2.75;;;;;19.10;82.51;101030.50;4934441;28;45341;-78
2021/06/28 04:53:46;;;;;;;;;2.75;2.75;;;;;19.09;81.99;101058.94;4933812;28;45534;-78
2021/06/28 04:56:11;;;;;;;;;3.50;3.00;;;;;19.08;82.35;101057.25;4934633;28;45264;-78
2021/06/28 04:58:37;;;;;;;;;3.00;3.00;;;;;19.10;82.75;101057.97;4936051;28;45479;-77
2021/06/28 05:01:02;;;;;;;;;2.50;2.50;;;;;19.12;82.79;101057.88;4933414;28;45444;-80
2021/06/28 05:03:28;;;;;;;;;7.50;4.00;;;;;19.12;82.07;101068.53;4933739;28;45974;-78
2021/06/28 05:05:53;;;;;;;;;3.00;3.00;;;;;19.10;nan;101065.97;4933737;28;45504;-79
2021/06/28 05:08:19;;;;;;;;;3.25;1.50;;;;;19.15;82.88;101069.16;4932875;28;46417;-80
2021/06/28 05:10:44;;;;;;;;;2.50;2.50;;;;;19.18;82.73;101068.09;4935414;28;45704;-80
2021/06/28 05:13:10;;;;;;;;;7.25;5.00;;;;;19.18;82.38;101066.28;4934906;28;45369;-80
2021/06/28 05:15:35;;;;;;;;;2.50;2.50;;;;;19.22;82.36;101066.91;4934220;28;45413;-80
2021/06/28 05:18:00;;;;;;;;;5.00;2.25;;;;;19.21;81.83;101075.84;4933572;28;45483;-80
2021/06/28 05:20:26;;;;;;;;;3.00;3.00;;;;;19.21;82.07;101089.16;4934213;28;45591;-80
2021/06/28 05:22:51;;;;;;;;;4.75;3.00;;;;;19.19;82.14;101077.78;4933649;28;45872;-79
2021/06/28 05:25:16;;;;;;;;;5.00;3.00;;;;;19.22;82.02;101082.88;4935770;28;45572;-79
2021/06/28 05:27:42;;;;;;;;;3.25;2.50;;;;;19.23;82.14;101085.44;4932887;28;46108;-80
2021/06/28 05:30:10;;;;;;;;;3.50;2.75;;;;;19.24;82.15;101071.13;4933510;28;45849;-79
2021/06/28 05:32:37;;;;;;;;;4.75;3.00;;;;;19.24;82.31;101075.63;4932995;28;45392;-77
2021/06/28 05:35:05;;;;;;;;;4.25;2.50;;;;;19.25;82.07;101087.97;4934095;28;45587;-79
2021/06/28 05:37:30;;;;;;;;;6.75;3.75;;;;;19.24;82.03;101080.94;4934113;28;45510;-78
2021/06/28 05:39:55;;;;;;;;;5.50;3.25;;;;;19.25;82.26;101075.50;4937341;28;45677;-78
2021/06/28 05:42:21;;;;;;;;;3.50;3.50;;;;;19.25;81.88;101071.97;4937885;28;45467;-76
2021/06/28 05:44:46;;;;;;;;;2.50;2.50;;;;;19.26;82.39;101068.34;4936601;28;46552;-76
2021/06/28 05:47:13;;;;;;;;;5.50;3.75;;;;;19.28;82.57;101055.78;4934156;28;45609;-76
2021/06/28 05:49:40;;;;;;;;;4.25;3.00;;;;;19.30;81.69;101045.84;4936941;28;45708;-76
2021/06/28 05:52:06;;;;;;;;;7.75;4.00;;;;;19.33;81.66;101028.78;4937010;28;46143;-76
2021/06/28 05:54:32;;;;;;;;;2.50;2.50;;;;;19.33;82.34;101028.78;4936829;28;45576;-77
2021/06/28 05:56:57;;;;;;;;;3.25;3.25;;;;;19.33;81.92;101034.97;4936109;28;45816;-77
2021/06/28 05:59:22;;;;;;;;;3.25;3.25;;;;;19.33;82.07;101029.63;4936883;28;45429;-79
2021/06/28 06:01:48;;;;;;;;;3.75;3.00;;;;;19.37;81.96;101030.25;4938117;28;45585;-78
2021/06/28 06:04:16;;;;;;;;;3.25;3.00;;;;;19.38;82.09;101023.97;4937400;28;45569;-80
2021/06/28 06:06:42;;;;;;;;;3.00;3.00;;;;;19.42;81.84;101025.41;4936402;28;46537;-79
2021/06/28 06:09:08;;;;;;;;;2.75;2.75;;;;;19.42;82.08;101036.06;4936935;28;45515;-82
2021/06/28 06:11:33;;;;;;;;;5.00;4.25;;;;;19.44;82.20;101048.34;4939450;28;45621;-78
2021/06/28 06:13:59;;;;;;;;;5.00;5.00;;;;;19.44;81.77;101051.00;4936597;28;45592;-84
2021/06/28 06:16:25;;;;;;;;;4.75;3.00;;;;;19.47;82.28;101061.44;4938497;28;45558;-77
2021/06/28 06:18:51;;;;;;;;;5.00;2.75;;;;;19.48;81.73;101054.28;4936858;28;45573;-77
2021/06/28 06:21:16;;;;;;;;;5.25;4.00;;;;;19.49;81.82;101064.00;4935229;28;45350;-81
2021/06/28 06:23:42;;;;;;;;;8.25;4.00;;;;;19.50;81.63;101063.03;4936979;28;45210;-79
2021/06/28 06:26:07;;;;;;;;;5.50;5.00;;;;;19.52;81.66;101069.06;4934919;28;45474;-79
2021/06/28 06:28:33;;;;;;;;;5.00;5.00;;;;;19.53;81.79;101090.31;4938420;28;45325;-77
2021/06/28 06:30:58;;;;;;;;;3.75;3.75;;;;;19.55;81.36;101098.19;4936803;28;45451;-79
2021/06/28 06:33:24;;;;;;;;;3.50;3.50;;;;;19.57;81.13;101101.56;4936046;28;45425;-78
2021/06/28 06:35:50;;;;;;;;;5.25;5.25;;;;;19.59;81.32;101105.03;4936071;28;45464;-78
2021/06/28 06:38:16;;;;;;;;;5.25;5.25;;;;;19.60;81.26;101104.06;4937069;28;45403;-78
2021/06/28 06:40:41;;;;;;;;;7.75;3.50;;;;;19.61;81.08;101108.41;4937373;28;45430;-78
2021/06/28 06:43:06;;;;;;;;;4.00;3.75;;;;;19.61;80.99;101115.56;4936979;28;45289;-78
2021/06/28 06:45:32;;;;;;;;;5.00;5.00;;;;;19.62;80.62;101114.59;4935749;28;46029;-78
2021/06/28 06:47:57;;;;;;;;;4.75;4.75;;;;;19.61;80.99;101110.22;4936604;28;45596;-77
2021/06/28 06:50:23;;;;;;;;;4.00;3.50;;;;;19.60;81.10;101119.19;4935231;28;45461;-78
2021/06/28 06:52:49;;;;;;;;;6.75;4.25;;;;;19.61;80.81;101115.56;4936232;28;45397;-77
2021/06/28 06:55:15;;;;;;;;;6.00;4.75;;;;;19.66;81.36;101114.25;4937248;28;45413;-78
2021/06/28 06:57:41;;;;;;;;;5.25;5.25;;;;;19.71;81.31;101108.56;4935641;28;45400;-76
2021/06/28 07:00:10;;;;;;;;;4.00;3.25;;;;;19.77;80.75;101098.28;4943018;28;45346;-75
2021/06/28 07:02:35;;;;;;;;;4.50;4.50;;;;;19.84;80.18;101109.38;4935147;28;45431;-78
2021/06/28 07:05:00;;;;;;;;;5.00;4.00;;;;;19.94;80.03;101102.38;4934707;28;54992;-78
2021/06/28 07:07:26;;;;;;;;;5.25;5.25;;;;;20.06;80.13;101098.75;4939592;28;45550;-78
2021/06/28 07:09:51;;;;;;;;;5.25;3.75;;;;;20.17;80.29;101103.25;4935220;28;45472;-77
2021/06/28 07:12:17;;;;;;;;;5.75;5.00;;;;;20.31;79.66;101099.53;4936057;28;45524;-77
2021/06/28 07:14:43;;;;;;;;;6.25;4.25;;;;;20.50;79.35;101109.63;4935232;28;46306;-78
2021/06/28 07:17:08;;;;;;;;;4.75;4.50;;;;;20.73;79.03;101115.84;4936335;28;45301;-78
2021/06/28 07:19:34;;;;;;;;;7.50;5.50;;;;;20.94;78.19;101111.44;4936840;28;45620;-78
2021/06/28 07:21:59;;;;;;;;;5.75;3.75;;;;;21.08;77.56;101111.16;4936988;28;45692;-78
2021/06/28 07:24:25;;;;;;;;;5.50;3.75;;;;;21.15;77.37;101111.53;4940120;28;46249;-79
2021/06/28 07:26:50;;;;;;;;;6.50;4.50;;;;;21.20;77.37;101120.00;4935340;28;45242;-78
2021/06/28 07:29:16;;;;;;;;;7.25;4.75;;;;;21.29;76.49;101118.38;4935225;28;45407;-78
2021/06/28 07:31:41;;;;;;;;;8.00;6.25;;;;;21.91;77.21;101111.50;4936610;28;45483;-78
2021/06/28 07:34:07;;;;;;;;;4.25;4.00;;;;;23.64;74.98;101118.56;4935790;28;45582;-79
2021/06/28 07:36:33;;;;;;;;;8.25;5.50;;;;;24.12;72.36;101118.53;4934895;28;45433;-78
2021/06/28 07:39:02;;;;;;;;;6.25;6.25;;;;;24.65;69.60;101119.81;4937190;28;45549;-78
2021/06/28 07:41:32;;;;;;;;;5.50;5.50;;;;;25.89;69.05;101121.84;4935802;28;45397;-78
2021/06/28 07:44:02;;;;;;;;;6.50;5.00;;;;;26.71;65.77;101115.16;4951572;28;45570;-79
2021/06/28 07:46:28;;;;;;;;;4.50;4.50;;;;;27.39;63.49;101116.09;4938067;28;45607;-79
2021/06/28 07:48:54;;;;;;;;;7.25;6.00;;;;;27.09;62.00;101123.75;4933287;28;45407;-80
2021/06/28 07:51:19;;;;;;;;;7.50;5.25;;;;;26.45;61.58;101128.69;4935162;28;45234;-78
2021/06/28 07:53:45;;;;;;;;;7.00;4.00;;;;;26.01;62.83;101131.41;4927452;28;46983;-78
2021/06/28 07:56:19;;;;;;;;;7.00;5.25;;;;;26.80;63.49;101127.69;4935387;28;45617;-78
2021/06/28 07:58:46;;;;;;;;;4.25;3.25;;;;;29.19;61.12;101122.09;4936938;28;45413;-78
2021/06/28 08:01:12;;;;;;;;;3.25;3.25;;;;;30.47;60.06;101114.94;4935737;28;45325;-78
2021/06/28 08:03:44;;;;;;;;;5.00;4.75;;;;;30.20;54.48;101116.41;4935194;28;46554;-79
2021/06/28 08:06:10;;;;;;;;;4.00;4.00;;;;;29.69;56.02;101126.16;4935205;28;45529;-79
2021/06/28 08:08:35;;;;;;;;;5.25;4.75;;;;;30.32;55.88;101124.94;4936698;28;46681;-79
2021/06/28 08:11:01;;;;;;;;;3.75;3.25;;;;;32.42;54.31;101122.06;4934812;28;45559;-80
2021/06/28 08:13:26;;;;;;;;;2.50;2.50;;;;;33.94;51.58;101123.66;4936748;28;46025;-80
2021/06/28 08:15:51;;;;;;;;;4.25;2.25;;;;;35.19;49.29;101130.69;4933719;28;52136;-79
2021/06/28 08:18:17;;;;;;;;;2.00;2.00;;;;;36.56;47.45;101133.63;4933253;28;46765;-82
2021/06/28 08:20:42;;;;;;;;;2.50;2.50;;;;;38.85;43.78;101136.00;4934586;28;45251;-81
2021/06/28 08:23:08;;;;;;;;;4.75;3.75;;;;;40.22;40.56;101134.06;4933395;28;47080;-82
2021/06/28 08:25:33;;;;;;;;;3.75;2.00;;;;;40.13;39.55;101131.72;4936880;28;45347;-81
2021/06/28 08:27:58;;;;;;;;;4.50;2.00;;;;;39.28;39.40;101124.47;4943505;28;45563;-81
2021/06/28 08:30:23;;;;;;;;;1.50;0.25;;;;;38.45;39.27;101124.94;4935027;28;46963;-81
2021/06/28 08:32:49;;;;;;;;;0.00;0.00;;;;;38.99;39.08;101123.63;4934788;28;46109;-81
2021/06/28 08:35:14;;;;;;;;;2.00;2.00;;;;;40.90;38.61;101130.00;4934933;28;45337;-81
2021/06/28 08:37:40;;;;;;;;;3.00;3.00;;;;;43.79;36.46;101131.19;4936634;28;45990;-81
2021/06/28 08:40:07;;;;;;;;;1.75;1.75;;;;;46.44;32.71;101135.22;4935026;28;45476;-81
2021/06/28 08:42:33;;;;;;;;;4.25;1.25;;;;;48.25;29.92;101142.19;4935244;28;46280;-81
2021/06/28 08:44:58;;;;;;;;;1.25;1.25;;;;;49.77;28.46;101145.47;4933846;28;45444;-82
2021/06/28 08:47:24;;;;;;;;;0.00;0.00;;;;;50.69;26.54;101154.91;4934625;28;45397;-82
2021/06/28 08:49:49;;;;;;;;;1.50;1.50;;;;;50.78;26.56;101143.72;4935175;28;45345;-81
2021/06/28 08:52:17;;;;;;;;;1.00;0.00;;;;;51.57;25.32;101148.22;4935460;28;45559;-82
2021/06/28 08:54:43;;;;;;;;;3.00;1.00;;;;;52.98;23.87;101146.09;4933317;28;45554;-82
2021/06/28 08:57:08;;;;;;;;;2.00;1.50;;;;;54.61;24.51;101152.22;4932932;28;45529;-80
2021/06/28 08:59:33;;;;;;;;;1.00;1.00;;;;;55.02;19.96;101150.25;4934590;28;45472;-82
2021/06/28 09:01:59;;;;;;;;;1.00;1.00;;;;;54.32;20.43;101151.31;4935010;28;46029;-81
2021/06/28 09:04:24;;;;;;;;;1.25;1.25;;;;;51.92;21.07;101149.78;4936130;28;45393;-81
2021/06/28 09:06:49;;;;;;;;;0.00;0.00;;;;;48.46;22.58;101148.22;4934478;28;45380;-80
2021/06/28 09:09:18;;;;;;;;;0.00;0.00;;;;;46.50;24.17;101150.72;4933243;28;45516;-80
2021/06/28 09:11:46;;;;;;;;;1.00;0.00;;;;;45.25;25.38;101148.47;4936225;28;47242;-81
2021/06/28 09:14:13;;;;;;;;;2.00;1.00;;;;;42.95;26.58;101147.94;4937166;28;45664;-78
2021/06/28 09:16:41;;;;;;;;;0.00;0.00;;;;;40.89;28.64;101155.91;4948304;28;45506;-78
2021/06/28 09:19:16;;;;;;;;;0.50;0.00;;;;;41.52;27.37;101148.91;4938488;28;45411;-77
2021/06/28 09:21:52;;;;;;;;;0.00;0.00;;;;;43.22;26.46;101161.56;4937145;28;47005;-79
2021/06/28 09:24:35;;;;;;;;;0.00;0.00;;;;;44.78;26.03;101157.34;4936528;28;45655;-78
2021/06/28 09:27:10;;;;;;;;;0.00;0.00;;;;;45.20;25.82;101161.56;4929719;28;45495;-79
2021/06/28 09:29:38;;;;;;;;;0.00;0.00;;;;;43.53;25.12;101164.41;4936201;28;45522;-78
2021/06/28 09:32:12;;;;;;;;;0.00;0.00;;;;;42.62;25.97;101171.31;4937616;28;47236;-79
2021/06/28 09:34:39;;;;;;;;;0.00;0.00;;;;;42.04;26.40;101178.63;4934179;28;45540;-78
2021/06/28 09:37:05;;;;;;;;;0.25;0.25;;;;;41.00;27.61;101165.16;4939060;28;45280;-78
2021/06/28 09:39:38;;;;;;;;;0.50;0.00;;;;;40.23;28.00;101169.59;4937365;28;45601;-78
2021/06/28 09:42:07;;;;;;;;;0.00;0.00;;;;;39.90;28.64;101170.44;4935585;28;48938;-78
2021/06/28 09:44:34;;;;;;;;;0.50;0.50;;;;;40.03;26.86;101166.50;4937124;28;45167;-79
2021/06/28 09:47:14;;;;;;;;;0.50;0.00;;;;;40.32;28.05;101167.25;4938651;28;45309;-77
2021/06/28 09:49:59;;;;;;;;;1.00;0.00;;;;;40.90;28.08;101180.47;4935726;28;45328;-78
2021/06/28 09:52:45;;;;;;;;;1.50;0.00;;;;;41.62;27.85;101176.59;4937944;28;45599;-78
2021/06/28 09:55:21;;;;;;;;;2.00;0.00;;;;;41.17;27.41;101174.19;4937916;28;45507;-79
2021/06/28 09:58:05;;;;;;;;;0.00;0.00;;;;;40.13;29.00;101166.69;4936838;28;45379;-79
2021/06/28 10:00:32;;;;;;;;;1.00;0.00;;;;;39.07;29.58;101178.22;4936978;28;45700;-79
2021/06/28 10:02:58;;;;;;;;;0.00;0.00;;;;;38.01;29.25;101171.13;4936953;28;45471;-79
2021/06/28 10:05:27;;;;;;;;;0.00;0.00;;;;;37.65;29.45;101177.56;4936622;28;45634;-79
2021/06/28 10:07:55;;;;;;;;;0.00;0.00;;;;;36.83;29.82;101177.97;4942279;28;45466;-78
2021/06/28 10:10:29;;;;;;;;;0.00;0.00;;;;;36.15;31.35;101180.75;4950576;28;45364;-79
2021/06/28 10:12:57;;;;;;;;;1.00;0.00;;;;;35.32;31.45;101180.84;4943849;28;46905;-78
2021/06/28 10:15:25;;;;;;;;;0.00;0.00;;;;;34.60;32.91;101183.59;4943021;28;45310;-79
2021/06/28 10:17:50;;;;;;;;;0.25;0.25;;;;;34.08;32.84;101184.47;4943542;28;45473;-79
2021/06/28 10:20:22;;;;;;;;;0.25;0.25;;;;;33.43;33.55;101189.59;4941916;28;45407;-79
2021/06/28 10:22:49;;;;;;;;;0.75;0.00;;;;;32.73;34.90;101192.38;4943965;28;45484;-79
2021/06/28 10:25:17;;;;;;;;;0.00;0.00;;;;;32.00;34.80;101188.22;4944398;28;45360;-79
2021/06/28 10:27:43;;;;;;;;;1.25;1.00;;;;;31.11;36.14;101185.75;4942604;28;45308;-78
2021/06/28 10:30:12;;;;;;;;;0.00;0.00;;;;;30.42;37.33;101190.56;4943796;28;45400;-81
2021/06/28 10:32:39;;;;;;;;;1.00;1.00;;;;;30.15;38.26;101186.59;4943596;28;46273;-78
2021/06/28 10:35:07;;;;;;;;;1.50;1.50;;;;;30.52;38.89;101180.31;4928570;28;45410;-78
2021/06/28 10:37:40;;;;;;;;;0.50;0.50;;;;;30.65;38.08;101179.69;4939962;28;45427;-80
2021/06/28 10:40:10;;;;;;;;;1.00;1.00;;;;;30.50;38.50;101176.94;4943510;28;45472;-78
2021/06/28 10:42:38;;;;;;;;;0.75;0.75;;;;;30.12;38.62;101174.28;4943262;28;45970;-77
2021/06/28 10:45:08;;;;;;;;;3.50;3.00;;;;;29.74;39.85;101176.06;4941238;28;45596;-78
2021/06/28 10:47:34;;;;;;;;;1.00;1.00;;;;;29.41;40.35;101172.69;4938955;28;45480;-79
2021/06/28 10:49:59;;;;;;;;;1.25;1.25;;;;;29.24;40.21;101180.06;4937244;28;45409;-78
2021/06/28 10:52:34;;;;;;;;;1.00;1.00;;;;;29.03;40.75;101166.31;4938183;28;46850;-80
2021/06/28 10:55:02;;;;;;;;;3.00;1.00;;;;;28.84;41.67;101170.22;4934444;28;45429;-77
2021/06/28 10:57:42;;;;;;;;;2.00;1.00;;;;;28.60;42.46;101160.31;4934127;28;45615;-79
2021/06/28 11:00:08;;;;;;;;;1.00;1.00;;;;;28.34;42.29;101168.66;4934400;28;45479;-78
2021/06/28 11:02:38;;;;;;;;;2.00;2.00;;;;;28.04;42.56;101164.78;4934320;28;47351;-77
2021/06/28 11:05:06;;;;;;;;;1.25;1.00;;;;;27.86;43.67;101158.69;4934309;28;45458;-78
2021/06/28 11:07:48;;;;;;;;;0.25;0.25;;;;;27.69;43.60;101155.97;4934644;28;45376;-80
2021/06/28 11:10:37;;;;;;;;;2.75;2.25;;;;;27.47;44.76;101152.06;4934339;28;45490;-77
2021/06/28 11:13:39;;;;;;;;;0.50;0.50;;;;;27.52;45.59;101149.69;4934369;28;45452;-79
2021/06/28 11:16:29;;;;;;;;;2.00;1.00;;;;;27.96;45.74;101149.41;4934454;28;45559;-79
2021/06/28 11:18:54;;;;;;;;;0.25;0.25;;;;;28.60;44.58;101154.91;4932115;28;47008;-79
2021/06/28 11:21:38;;;;;;;;;2.00;2.00;;;;;29.17;43.85;101157.44;4934122;28;45535;-78
2021/06/28 11:24:03;;;;;;;;;1.00;1.00;;;;;29.25;43.54;101146.56;4933835;28;46177;-77